createdAt,value
2017-08-03T00:00:38.375Z,20.82
2017-08-03T00:03:06.317Z,20.73
2017-08-03T00:05:34.283Z,20.64
2017-08-03T00:08:02.249Z,20.63
2017-08-03T00:10:30.240Z,20.55
2017-08-03T00:12:57.919Z,20.47
2017-08-03T00:15:25.649Z,20.45
2017-08-03T00:17:53.653Z,20.53
2017-08-03T00:20:21.309Z,20.46
2017-08-03T00:22:49.152Z,20.42
2017-08-03T00:25:16.948Z,20.35
2017-08-03T00:27:44.813Z,20.48
2017-08-03T00:30:12.753Z,20.42
2017-08-03T00:32:40.446Z,20.22
2017-08-03T00:35:08.286Z,20.12
2017-08-03T00:37:35.977Z,20.11
2017-08-03T00:40:04.000Z,20.19
2017-08-03T00:42:31.912Z,20.17
2017-08-03T00:44:59.568Z,20.22
2017-08-03T00:47:27.647Z,20.14
2017-08-03T00:49:55.363Z,20.08
2017-08-03T00:52:23.378Z,20.09
2017-08-03T00:54:51.295Z,20.20
2017-08-03T00:57:19.318Z,20.10
2017-08-03T00:59:46.949Z,19.96
2017-08-03T01:02:14.799Z,19.92
2017-08-03T01:04:42.689Z,19.88
2017-08-03T01:07:10.556Z,19.89
2017-08-03T01:09:38.423Z,19.78
2017-08-03T01:12:06.016Z,19.74
2017-08-03T01:14:33.707Z,19.72
2017-08-03T01:17:01.597Z,19.69
2017-08-03T01:19:29.189Z,19.62
2017-08-03T01:21:56.964Z,19.64
2017-08-03T01:24:25.002Z,19.78
2017-08-03T01:26:52.696Z,19.79
2017-08-03T01:29:20.550Z,19.68
2017-08-03T01:31:48.621Z,19.68
2017-08-03T01:34:16.291Z,19.81
2017-08-03T01:36:43.960Z,19.74
2017-08-03T01:39:11.820Z,19.76
2017-08-03T01:41:39.474Z,19.67
2017-08-03T01:44:07.151Z,19.61
2017-08-03T01:46:35.020Z,19.67
2017-08-03T01:49:02.748Z,19.65
2017-08-03T01:51:30.540Z,19.58
2017-08-03T01:53:58.618Z,19.49
2017-08-03T01:56:26.466Z,19.57
2017-08-03T01:58:55.166Z,19.55
2017-08-03T02:01:23.026Z,19.44
2017-08-03T02:03:50.898Z,19.37
2017-08-03T02:06:18.764Z,19.46
2017-08-03T02:08:46.846Z,19.39
2017-08-03T02:11:14.576Z,19.34
2017-08-03T02:13:42.542Z,19.32
2017-08-03T02:16:10.633Z,19.41
2017-08-03T02:18:38.262Z,19.34
2017-08-03T02:21:05.967Z,19.35
2017-08-03T02:23:34.033Z,19.23
2017-08-03T02:26:02.032Z,19.16
2017-08-03T02:28:29.980Z,19.16
2017-08-03T02:30:57.845Z,19.13
2017-08-03T02:33:25.647Z,19.21
2017-08-03T02:35:53.584Z,19.18
2017-08-03T02:38:21.613Z,19.07
2017-08-03T02:40:49.381Z,19.12
2017-08-03T02:43:17.344Z,19.12
2017-08-03T02:45:45.055Z,19.04
2017-08-03T02:48:12.902Z,19.01
2017-08-03T02:50:40.787Z,18.98
2017-08-03T02:53:08.763Z,19.10
2017-08-03T02:55:36.677Z,19.11
2017-08-03T02:58:04.594Z,19.07
2017-08-03T03:00:32.314Z,18.99
2017-08-03T03:03:00.326Z,19.02
2017-08-03T03:05:27.984Z,18.95
2017-08-03T03:07:56.060Z,18.94
2017-08-03T03:10:23.907Z,18.91
2017-08-03T03:12:51.994Z,18.94
2017-08-03T03:15:20.070Z,19.14
2017-08-03T03:17:47.665Z,19.22
2017-08-03T03:20:15.527Z,19.19
2017-08-03T03:22:43.466Z,19.11
2017-08-03T03:25:11.057Z,19.11
2017-08-03T03:27:39.172Z,19.15
2017-08-03T03:30:06.834Z,19.18
2017-08-03T03:32:34.704Z,19.17
2017-08-03T03:35:02.397Z,19.21
2017-08-03T03:37:30.440Z,19.30
2017-08-03T03:39:58.304Z,19.26
2017-08-03T03:42:26.050Z,19.24
2017-08-03T03:44:54.041Z,19.19
2017-08-03T03:47:21.790Z,19.18
2017-08-03T03:49:49.756Z,19.24
2017-08-03T03:52:17.665Z,19.41
2017-08-03T03:54:45.326Z,20.20
2017-08-03T03:57:13.056Z,22.27
2017-08-03T03:59:41.045Z,24.19
2017-08-03T04:02:08.742Z,25.37
2017-08-03T04:04:36.480Z,26.16
2017-08-03T04:07:04.423Z,26.39
2017-08-03T04:09:32.166Z,26.98
2017-08-03T04:12:00.136Z,27.90
2017-08-03T04:14:27.945Z,28.23
2017-08-03T04:16:55.542Z,28.41
2017-08-03T04:19:23.179Z,28.88
2017-08-03T04:21:51.031Z,29.01
2017-08-03T04:24:18.654Z,29.52
2017-08-03T04:26:46.266Z,29.75
2017-08-03T04:29:13.997Z,29.71
2017-08-03T04:31:41.621Z,30.34
2017-08-03T04:34:09.243Z,30.36
2017-08-03T04:36:36.973Z,30.67
2017-08-03T04:39:04.637Z,30.25
2017-08-03T04:41:32.239Z,30.71
2017-08-03T04:43:59.907Z,30.30
2017-08-03T04:46:27.524Z,31.39
2017-08-03T04:48:55.150Z,32.47
2017-08-03T04:51:22.928Z,33.47
2017-08-03T04:53:50.580Z,33.17
2017-08-03T04:56:18.189Z,34.00
2017-08-03T04:58:45.857Z,34.35
2017-08-03T05:01:13.479Z,34.84
2017-08-03T05:03:41.103Z,35.69
2017-08-03T05:06:08.786Z,35.91
2017-08-03T05:08:36.412Z,36.66
2017-08-03T05:11:04.091Z,37.77
2017-08-03T05:13:31.765Z,38.26
2017-08-03T05:15:59.379Z,37.64
2017-08-03T05:18:27.088Z,37.73
2017-08-03T05:20:54.770Z,37.28
2017-08-03T05:23:22.427Z,37.21
2017-08-03T05:25:50.054Z,37.75
2017-08-03T05:28:18.659Z,37.73
2017-08-03T05:30:46.298Z,37.80
2017-08-03T05:33:13.928Z,37.54
2017-08-03T05:35:41.609Z,38.12
2017-08-03T05:38:09.240Z,36.96
2017-08-03T05:40:36.899Z,38.52
2017-08-03T05:43:04.575Z,37.86
2017-08-03T05:45:32.375Z,37.70
2017-08-03T05:47:59.989Z,38.22
2017-08-03T05:50:27.668Z,38.64
2017-08-03T05:52:55.287Z,38.77
2017-08-03T05:55:22.923Z,38.94
2017-08-03T05:57:50.582Z,38.76
2017-08-03T06:00:18.181Z,38.47
2017-08-03T06:02:45.793Z,38.11
2017-08-03T06:05:13.457Z,38.58
2017-08-03T06:07:41.062Z,38.73
2017-08-03T06:10:11.681Z,39.15
2017-08-03T06:12:39.355Z,40.40
2017-08-03T06:15:06.967Z,40.65
2017-08-03T06:17:34.593Z,41.20
2017-08-03T06:20:02.266Z,40.38
2017-08-03T06:22:29.888Z,41.43
2017-08-03T06:24:57.829Z,40.64
2017-08-03T06:27:25.497Z,40.79
2017-08-03T06:29:53.117Z,40.43
2017-08-03T06:32:20.823Z,41.46
2017-08-03T06:34:48.509Z,41.67
2017-08-03T06:37:16.135Z,42.27
2017-08-03T06:39:43.765Z,41.73
2017-08-03T06:42:11.469Z,40.84
2017-08-03T06:44:39.136Z,40.76
2017-08-03T06:47:06.746Z,41.09
2017-08-03T06:49:34.437Z,41.58
2017-08-03T06:52:02.051Z,41.96
2017-08-03T06:54:29.680Z,41.41
2017-08-03T06:56:57.374Z,42.25
2017-08-03T06:59:25.000Z,42.19
2017-08-03T07:01:52.639Z,42.42
2017-08-03T07:04:20.311Z,42.78
2017-08-03T07:06:47.931Z,41.86
2017-08-03T07:09:15.575Z,41.32
2017-08-03T07:11:43.236Z,41.97
2017-08-03T07:14:10.846Z,42.39
2017-08-03T07:16:38.460Z,42.49
2017-08-03T07:19:06.149Z,41.88
2017-08-03T07:21:33.765Z,43.61
2017-08-03T07:24:01.419Z,43.45
2017-08-03T07:26:29.090Z,43.63
2017-08-03T07:28:56.734Z,43.91
2017-08-03T07:31:24.293Z,44.20
2017-08-03T07:33:51.974Z,43.90
2017-08-03T07:36:19.539Z,43.96
2017-08-03T07:38:47.101Z,44.44
2017-08-03T07:41:14.708Z,43.22
2017-08-03T07:43:42.334Z,43.02
2017-08-03T07:46:09.993Z,43.24
2017-08-03T07:48:37.659Z,43.85
2017-08-03T07:51:05.266Z,43.46
2017-08-03T07:53:32.870Z,43.11
2017-08-03T07:56:00.516Z,43.48
2017-08-03T07:58:28.197Z,42.62
2017-08-03T08:00:55.811Z,43.75
2017-08-03T08:03:23.465Z,43.80
2017-08-03T08:05:51.077Z,43.27
2017-08-03T08:08:18.694Z,43.60
2017-08-03T08:10:46.367Z,43.92
2017-08-03T08:13:13.996Z,43.67
2017-08-03T08:15:41.630Z,43.76
2017-08-03T08:18:09.309Z,43.03
2017-08-03T08:20:36.938Z,43.39
2017-08-03T08:23:04.554Z,43.52
2017-08-03T08:25:32.228Z,43.74
2017-08-03T08:27:59.852Z,43.09
2017-08-03T08:30:27.476Z,43.53
2017-08-03T08:32:55.150Z,43.99
2017-08-03T08:35:22.826Z,43.66
2017-08-03T08:37:50.445Z,42.83
2017-08-03T08:40:18.106Z,43.78
2017-08-03T08:42:45.729Z,43.93
2017-08-03T08:45:13.339Z,44.82
2017-08-03T08:47:41.021Z,44.80
2017-08-03T08:50:08.636Z,43.60
2017-08-03T08:52:36.256Z,43.70
2017-08-03T08:55:03.908Z,43.90
2017-08-03T08:57:31.550Z,43.64
2017-08-03T08:59:59.170Z,43.08
2017-08-03T09:02:26.847Z,42.74
2017-08-03T09:04:54.451Z,42.82
2017-08-03T09:07:22.072Z,42.61
2017-08-03T09:09:49.754Z,42.59
2017-08-03T09:12:17.442Z,42.32
2017-08-03T09:14:45.054Z,41.91
2017-08-03T09:17:12.712Z,42.31
2017-08-03T09:19:40.339Z,42.01
2017-08-03T09:22:07.940Z,43.02
2017-08-03T09:24:35.612Z,42.87
2017-08-03T09:27:03.240Z,42.60
2017-08-03T09:29:30.866Z,43.33
2017-08-03T09:31:58.524Z,44.02
2017-08-03T09:34:26.435Z,44.38
2017-08-03T09:36:54.141Z,43.46
2017-08-03T09:39:21.817Z,43.49
2017-08-03T09:41:49.438Z,42.01
2017-08-03T09:44:17.148Z,43.31
2017-08-03T09:46:44.830Z,43.11
2017-08-03T09:49:12.501Z,43.53
2017-08-03T09:51:40.116Z,42.43
2017-08-03T09:54:07.744Z,42.44
2017-08-03T09:56:35.453Z,42.44
2017-08-03T09:59:03.060Z,42.68
2017-08-03T10:01:30.679Z,42.15
2017-08-03T10:03:58.353Z,41.46
2017-08-03T10:06:26.145Z,41.88
2017-08-03T10:08:53.714Z,41.35
2017-08-03T10:11:21.309Z,40.92
2017-08-03T10:13:48.868Z,40.47
2017-08-03T10:16:16.427Z,40.60
2017-08-03T10:18:44.091Z,40.85
2017-08-03T10:21:11.709Z,41.38
2017-08-03T10:23:40.267Z,41.34
2017-08-03T10:26:08.013Z,42.61
2017-08-03T10:28:35.724Z,43.10
2017-08-03T10:31:03.338Z,42.59
2017-08-03T10:33:31.009Z,42.70
2017-08-03T10:35:58.608Z,41.94
2017-08-03T10:38:26.225Z,40.09
2017-08-03T10:40:53.883Z,41.13
2017-08-03T10:43:21.500Z,41.90
2017-08-03T10:45:49.109Z,42.60
2017-08-03T10:48:16.765Z,42.74
2017-08-03T10:50:44.371Z,42.71
2017-08-03T10:53:11.981Z,43.06
2017-08-03T10:55:39.640Z,42.88
2017-08-03T10:58:07.249Z,43.29
2017-08-03T11:00:34.893Z,44.42
2017-08-03T11:03:02.579Z,44.67
2017-08-03T11:05:31.158Z,44.35
2017-08-03T11:07:58.754Z,42.51
2017-08-03T11:10:26.408Z,42.41
2017-08-03T11:12:54.058Z,43.14
2017-08-03T11:15:21.783Z,42.72
2017-08-03T11:17:49.452Z,42.69
2017-08-03T11:20:17.041Z,43.06
2017-08-03T11:22:44.645Z,43.85
2017-08-03T11:25:12.341Z,44.22
2017-08-03T11:27:40.091Z,45.19
2017-08-03T11:30:07.693Z,44.96
2017-08-03T11:32:35.374Z,44.59
2017-08-03T11:35:02.966Z,44.42
2017-08-03T11:37:30.575Z,43.38
2017-08-03T11:39:58.229Z,41.80
2017-08-03T11:42:25.811Z,41.67
2017-08-03T11:44:53.412Z,40.88
2017-08-03T11:47:21.076Z,40.60
2017-08-03T11:49:48.789Z,40.45
2017-08-03T11:52:16.409Z,40.49
2017-08-03T11:54:44.175Z,40.58
2017-08-03T11:57:11.838Z,40.51
2017-08-03T11:59:39.445Z,41.43
2017-08-03T12:02:07.141Z,42.18
2017-08-03T12:04:34.750Z,43.26
2017-08-03T12:07:02.356Z,43.39
2017-08-03T12:09:30.022Z,42.98
2017-08-03T12:11:57.679Z,42.68
2017-08-03T12:14:25.265Z,41.96
2017-08-03T12:16:52.940Z,40.82
2017-08-03T12:19:20.727Z,40.89
2017-08-03T12:21:48.326Z,41.82
2017-08-03T12:24:16.155Z,42.66
2017-08-03T12:26:43.758Z,42.74
2017-08-03T12:29:11.510Z,42.61
2017-08-03T12:31:39.175Z,43.28
2017-08-03T12:34:06.807Z,43.53
2017-08-03T12:36:34.400Z,43.35
2017-08-03T12:39:02.152Z,42.87
2017-08-03T12:41:29.875Z,42.88
2017-08-03T12:43:57.521Z,43.21
2017-08-03T12:46:25.212Z,41.34
2017-08-03T12:48:52.821Z,40.10
2017-08-03T12:51:20.442Z,40.38
2017-08-03T12:53:48.137Z,39.70
2017-08-03T12:56:15.747Z,39.26
2017-08-03T12:58:43.445Z,37.85
2017-08-03T13:01:11.162Z,37.10
2017-08-03T13:03:38.768Z,36.63
2017-08-03T13:06:06.363Z,35.95
2017-08-03T13:08:34.095Z,35.55
2017-08-03T13:11:01.757Z,35.38
2017-08-03T13:13:29.385Z,35.02
2017-08-03T13:15:57.051Z,35.19
2017-08-03T13:18:24.658Z,35.03
2017-08-03T13:20:52.260Z,35.12
2017-08-03T13:23:19.904Z,35.00
2017-08-03T13:25:47.521Z,35.11
2017-08-03T13:28:15.140Z,35.07
2017-08-03T13:30:42.818Z,35.18
2017-08-03T13:33:10.371Z,34.99
2017-08-03T13:35:37.978Z,35.09
2017-08-03T13:38:05.568Z,35.14
2017-08-03T13:40:33.145Z,35.22
2017-08-03T13:43:00.704Z,35.11
2017-08-03T13:45:28.349Z,34.88
2017-08-03T13:47:55.957Z,34.89
2017-08-03T13:50:23.551Z,34.85
2017-08-03T13:52:51.148Z,34.68
2017-08-03T13:55:18.718Z,34.84
2017-08-03T13:57:46.282Z,35.05
2017-08-03T14:00:13.894Z,35.11
2017-08-03T14:02:41.424Z,34.88
2017-08-03T14:05:08.989Z,35.04
2017-08-03T14:07:36.597Z,35.11
2017-08-03T14:10:04.132Z,34.97
2017-08-03T14:12:31.669Z,34.92
2017-08-03T14:14:59.354Z,34.92
2017-08-03T14:17:26.952Z,34.99
2017-08-03T14:19:54.570Z,34.87
2017-08-03T14:22:22.253Z,34.86
2017-08-03T14:24:49.845Z,34.83
2017-08-03T14:27:17.529Z,34.90
2017-08-03T14:29:45.325Z,34.95
2017-08-03T14:32:12.917Z,35.02
2017-08-03T14:34:40.509Z,35.04
2017-08-03T14:37:08.161Z,35.02
2017-08-03T14:39:35.753Z,34.87
2017-08-03T14:42:03.348Z,34.83
2017-08-03T14:44:31.013Z,34.75
2017-08-03T14:46:58.645Z,34.84
2017-08-03T14:49:26.244Z,34.91
2017-08-03T14:51:53.893Z,34.91
2017-08-03T14:54:21.644Z,34.81
2017-08-03T14:56:49.228Z,34.84
2017-08-03T14:59:16.909Z,34.83
2017-08-03T15:01:44.550Z,34.85
2017-08-03T15:04:12.167Z,34.87
2017-08-03T15:06:39.994Z,34.79
2017-08-03T15:09:07.598Z,34.75
2017-08-03T15:11:35.208Z,34.76
2017-08-03T15:14:02.857Z,34.74
2017-08-03T15:16:30.448Z,34.74
2017-08-03T15:18:58.043Z,34.75
2017-08-03T15:21:25.718Z,34.67
2017-08-03T15:23:53.330Z,34.64
2017-08-03T15:26:20.944Z,34.60
2017-08-03T15:28:48.992Z,34.58
2017-08-03T15:31:16.592Z,34.43
2017-08-03T15:33:44.188Z,34.37
2017-08-03T15:36:11.857Z,34.29
2017-08-03T15:38:39.457Z,34.24
2017-08-03T15:41:07.070Z,34.20
2017-08-03T15:43:34.712Z,33.95
2017-08-03T15:46:02.304Z,33.91
2017-08-03T15:48:29.918Z,33.95
2017-08-03T15:50:57.582Z,33.94
2017-08-03T15:53:25.178Z,33.94
2017-08-03T15:55:52.792Z,33.88
2017-08-03T15:58:20.451Z,33.83
2017-08-03T16:00:48.061Z,33.81
2017-08-03T16:03:15.670Z,33.77
2017-08-03T16:05:43.336Z,33.71
2017-08-03T16:08:10.945Z,33.54
2017-08-03T16:10:38.566Z,33.43
2017-08-03T16:13:06.233Z,33.39
2017-08-03T16:15:33.837Z,33.35
2017-08-03T16:18:01.485Z,33.26
2017-08-03T16:20:29.135Z,33.13
2017-08-03T16:22:56.753Z,32.92
2017-08-03T16:25:24.371Z,32.72
2017-08-03T16:27:52.049Z,32.52
2017-08-03T16:30:19.643Z,32.38
2017-08-03T16:32:47.247Z,32.14
2017-08-03T16:35:14.898Z,31.94
2017-08-03T16:37:42.614Z,31.76
2017-08-03T16:40:10.217Z,31.56
2017-08-03T16:42:37.870Z,31.39
2017-08-03T16:45:05.583Z,31.20
2017-08-03T16:47:33.205Z,30.94
2017-08-03T16:50:00.895Z,30.80
2017-08-03T16:52:28.540Z,30.64
2017-08-03T16:54:56.159Z,30.47
2017-08-03T16:57:23.843Z,30.31
2017-08-03T16:59:51.445Z,30.12
2017-08-03T17:02:19.053Z,29.96
2017-08-03T17:04:46.746Z,29.81
2017-08-03T17:07:14.347Z,29.63
2017-08-03T17:09:41.943Z,29.42
2017-08-03T17:12:09.715Z,29.27
2017-08-03T17:14:37.325Z,29.03
2017-08-03T17:17:04.937Z,28.87
2017-08-03T17:19:32.603Z,28.72
2017-08-03T17:22:00.190Z,28.56
2017-08-03T17:24:27.798Z,28.32
2017-08-03T17:26:55.437Z,28.14
2017-08-03T17:29:23.039Z,27.92
2017-08-03T17:31:50.672Z,27.69
2017-08-03T17:34:18.377Z,27.59
2017-08-03T17:36:45.959Z,27.46
2017-08-03T17:39:13.558Z,27.31
2017-08-03T17:41:41.202Z,27.15
2017-08-03T17:44:08.811Z,26.95
2017-08-03T17:46:36.407Z,26.90
2017-08-03T17:49:04.071Z,26.85
2017-08-03T17:51:31.653Z,26.78
2017-08-03T17:53:59.255Z,26.68
2017-08-03T17:56:26.926Z,26.56
2017-08-03T17:58:54.520Z,26.40
2017-08-03T18:01:22.114Z,26.28
2017-08-03T18:03:49.761Z,26.14
2017-08-03T18:06:17.353Z,25.97
2017-08-03T18:08:44.947Z,25.94
2017-08-03T18:11:12.588Z,25.79
2017-08-03T18:13:40.230Z,25.69
2017-08-03T18:16:07.799Z,25.67
2017-08-03T18:18:35.489Z,25.64
2017-08-03T18:21:03.092Z,25.52
2017-08-03T18:23:30.689Z,25.42
2017-08-03T18:25:58.344Z,25.40
2017-08-03T18:28:25.999Z,25.32
2017-08-03T18:30:53.602Z,25.28
2017-08-03T18:33:21.259Z,25.22
2017-08-03T18:35:48.905Z,25.14
2017-08-03T18:38:16.524Z,25.03
2017-08-03T18:40:44.188Z,24.96
2017-08-03T18:43:11.938Z,24.84
2017-08-03T18:45:39.669Z,24.78
2017-08-03T18:48:07.331Z,24.69
2017-08-03T18:50:34.948Z,24.66
2017-08-03T18:53:02.581Z,24.70
2017-08-03T18:55:30.221Z,24.70
2017-08-03T18:57:57.842Z,24.63
2017-08-03T19:00:25.460Z,24.53
2017-08-03T19:02:53.110Z,24.38
2017-08-03T19:05:20.780Z,24.22
2017-08-03T19:07:48.390Z,24.15
2017-08-03T19:10:16.051Z,24.14
2017-08-03T19:12:43.668Z,24.13
2017-08-03T19:15:11.290Z,24.08
2017-08-03T19:17:38.954Z,24.03
2017-08-03T19:20:06.555Z,24.00
2017-08-03T19:22:34.169Z,24.01
2017-08-03T19:25:01.828Z,23.97
2017-08-03T19:27:29.430Z,23.90
2017-08-03T19:29:57.035Z,23.79
2017-08-03T19:32:24.708Z,23.75
2017-08-03T19:34:52.319Z,23.67
2017-08-03T19:37:19.923Z,23.63
2017-08-03T19:39:47.588Z,23.65
2017-08-03T19:42:15.206Z,23.63
2017-08-03T19:44:42.821Z,23.58
2017-08-03T19:47:10.764Z,23.54
2017-08-03T19:49:38.400Z,23.49
2017-08-03T19:52:06.030Z,23.40
2017-08-03T19:54:33.693Z,23.26
2017-08-03T19:57:01.297Z,23.24
2017-08-03T19:59:28.886Z,23.19
2017-08-03T20:01:56.565Z,23.18
2017-08-03T20:04:24.171Z,23.17
2017-08-03T20:07:03.616Z,23.12
2017-08-03T20:09:37.087Z,23.01
2017-08-03T20:12:04.821Z,22.91
2017-08-03T20:14:32.413Z,22.88
2017-08-03T20:17:00.036Z,22.93
2017-08-03T20:19:27.760Z,22.92
2017-08-03T20:21:55.360Z,22.91
2017-08-03T20:24:22.982Z,22.81
2017-08-03T20:26:50.659Z,22.80
2017-08-03T20:29:18.258Z,22.75
2017-08-03T20:31:45.892Z,22.72
2017-08-03T20:34:13.556Z,22.66
2017-08-03T20:36:41.143Z,22.68
2017-08-03T20:39:08.737Z,22.64
2017-08-03T20:41:36.396Z,22.62
2017-08-03T20:44:03.994Z,22.59
2017-08-03T20:46:31.594Z,22.51
2017-08-03T20:48:59.287Z,22.54
2017-08-03T20:51:26.889Z,22.50
2017-08-03T20:53:54.655Z,22.48
2017-08-03T20:56:22.345Z,22.47
2017-08-03T20:58:50.053Z,22.52
2017-08-03T21:01:17.693Z,22.50
2017-08-03T21:03:45.369Z,22.45
2017-08-03T21:06:12.972Z,22.36
2017-08-03T21:08:40.582Z,22.30
2017-08-03T21:11:08.261Z,22.26
2017-08-03T21:13:35.951Z,22.28
2017-08-03T21:16:03.549Z,22.23
2017-08-03T21:18:31.932Z,22.17
2017-08-03T21:20:59.683Z,22.14
2017-08-03T21:23:27.305Z,22.12
2017-08-03T21:25:54.991Z,22.05
2017-08-03T21:28:22.599Z,22.04
2017-08-03T21:30:50.203Z,22.05
2017-08-03T21:33:18.018Z,22.05
2017-08-03T21:35:45.610Z,21.97
2017-08-03T21:38:13.246Z,21.95
2017-08-03T21:40:40.935Z,21.94
2017-08-03T21:43:08.554Z,21.94
2017-08-03T21:45:36.233Z,21.90
2017-08-03T21:48:03.937Z,21.84
2017-08-03T21:50:31.548Z,21.79
2017-08-03T21:52:59.251Z,21.74
2017-08-03T21:55:26.972Z,21.78
2017-08-03T21:57:54.624Z,21.76
2017-08-03T22:00:42.856Z,21.79
2017-08-03T22:03:10.455Z,21.75
2017-08-03T22:05:38.047Z,21.74
2017-08-03T22:08:05.684Z,21.71
2017-08-03T22:10:33.404Z,21.69
2017-08-03T22:13:00.996Z,21.67
2017-08-03T22:15:28.655Z,21.59
2017-08-03T22:17:56.287Z,21.58
2017-08-03T22:20:23.893Z,21.55
2017-08-03T22:22:51.540Z,21.52
2017-08-03T22:25:19.253Z,21.54
2017-08-03T22:27:47.301Z,21.60
2017-08-03T22:30:15.188Z,21.69
2017-08-03T22:32:42.802Z,21.53
2017-08-03T22:35:10.498Z,21.49
2017-08-03T22:37:38.109Z,21.44
2017-08-03T22:40:05.738Z,21.40
2017-08-03T22:42:33.412Z,21.41
2017-08-03T22:45:01.022Z,21.42
2017-08-03T22:47:28.636Z,21.30
2017-08-03T22:49:56.311Z,21.24
2017-08-03T22:52:23.914Z,21.21
2017-08-03T22:54:51.540Z,21.30
2017-08-03T22:57:19.210Z,21.26
2017-08-03T22:59:46.815Z,21.14
2017-08-03T23:02:14.413Z,21.05
2017-08-03T23:04:42.083Z,21.01
2017-08-03T23:07:09.702Z,20.97
2017-08-03T23:09:37.319Z,20.89
2017-08-03T23:12:05.020Z,20.89
2017-08-03T23:14:32.630Z,20.80
2017-08-03T23:17:00.256Z,20.84
2017-08-03T23:19:27.951Z,20.83
2017-08-03T23:21:55.561Z,20.82
2017-08-03T23:24:23.190Z,20.84
2017-08-03T23:26:50.858Z,20.86
2017-08-03T23:29:18.470Z,20.86
2017-08-03T23:31:46.101Z,20.83
2017-08-03T23:34:13.793Z,20.80
2017-08-03T23:36:41.414Z,20.84
2017-08-03T23:39:09.065Z,20.89
2017-08-03T23:41:36.893Z,21.02
2017-08-03T23:44:04.489Z,20.93
2017-08-03T23:46:32.101Z,20.93
2017-08-03T23:48:59.765Z,20.91
2017-08-03T23:51:27.382Z,20.89
2017-08-03T23:53:55.021Z,20.86
2017-08-03T23:56:22.955Z,20.82
2017-08-03T23:58:50.663Z,20.86
